sensor_id;sensor_type;location;lat;lon;timestamp;P1;durP1;ratioP1;P2;durP2;ratioP2
11039;SDS011;5573;49.592;8.662;2023-03-01T00:01:37;64.33;;;60.53;;
11039;SDS011;5573;49.592;8.662;2023-03-01T00:04:05;64.33;;;60.93;;
11039;SDS011;5573;49.592;8.662;2023-03-01T00:06:33;68.70;;;65.13;;
11039;SDS011;5573;49.592;8.662;2023-03-01T00:09:00;68.87;;;65.23;;
11039;SDS011;5573;49.592;8.662;2023-03-01T00:11:30;70.43;;;66.70;;
11039;SDS011;5573;49.592;8.662;2023-03-01T00:13:59;65.67;;;62.30;;
11039;SDS011;5573;49.592;8.662;2023-03-01T00:16:30;65.33;;;61.80;;
11039;SDS011;5573;49.592;8.662;2023-03-01T00:19:00;68.13;;;64.60;;
11039;SDS011;5573;49.592;8.662;2023-03-01T00:21:28;66.07;;;62.57;;
11039;SDS011;5573;49.592;8.662;2023-03-01T00:23:56;67.63;;;63.93;;
11039;SDS011;5573;49.592;8.662;2023-03-01T00:26:25;75.87;;;71.73;;
11039;SDS011;5573;49.592;8.662;2023-03-01T00:28:53;77.13;;;73.07;;
11039;SDS011;5573;49.592;8.662;2023-03-01T00:31:22;69.43;;;65.77;;
11039;SDS011;5573;49.592;8.662;2023-03-01T00:33:53;70.23;;;66.37;;
11039;SDS011;5573;49.592;8.662;2023-03-01T00:36:23;81.77;;;77.23;;
11039;SDS011;5573;49.592;8.662;2023-03-01T00:38:52;75.77;;;71.57;;
11039;SDS011;5573;49.592;8.662;2023-03-01T00:41:20;70.67;;;66.93;;
11039;SDS011;5573;49.592;8.662;2023-03-01T00:43:50;74.80;;;70.87;;
11039;SDS011;5573;49.592;8.662;2023-03-01T00:46:18;74.93;;;71.03;;
11039;SDS011;5573;49.592;8.662;2023-03-01T00:48:48;79.67;;;75.43;;
11039;SDS011;5573;49.592;8.662;2023-03-01T00:51:18;76.97;;;72.97;;
11039;SDS011;5573;49.592;8.662;2023-03-01T00:53:47;75.87;;;71.93;;
11039;SDS011;5573;49.592;8.662;2023-03-01T00:56:17;81.57;;;77.20;;
11039;SDS011;5573;49.592;8.662;2023-03-01T00:58:45;77.07;;;73.00;;
11039;SDS011;5573;49.592;8.662;2023-03-01T01:01:14;72.50;;;68.57;;
11039;SDS011;5573;49.592;8.662;2023-03-01T01:03:48;77.37;;;73.33;;
11039;SDS011;5573;49.592;8.662;2023-03-01T01:06:20;72.73;;;68.87;;
11039;SDS011;5573;49.592;8.662;2023-03-01T01:08:49;76.73;;;72.73;;
11039;SDS011;5573;49.592;8.662;2023-03-01T01:11:17;72.90;;;69.00;;
11039;SDS011;5573;49.592;8.662;2023-03-01T01:13:46;72.00;;;68.20;;
11039;SDS011;5573;49.592;8.662;2023-03-01T01:16:15;70.17;;;66.47;;
11039;SDS011;5573;49.592;8.662;2023-03-01T01:18:45;78.47;;;74.27;;
11039;SDS011;5573;49.592;8.662;2023-03-01T01:21:14;74.43;;;70.47;;
11039;SDS011;5573;49.592;8.662;2023-03-01T01:23:45;74.83;;;70.83;;
11039;SDS011;5573;49.592;8.662;2023-03-01T01:26:15;71.33;;;67.47;;
11039;SDS011;5573;49.592;8.662;2023-03-01T01:28:44;70.03;;;66.23;;
11039;SDS011;5573;49.592;8.662;2023-03-01T01:31:12;68.67;;;65.03;;
11039;SDS011;5573;49.592;8.662;2023-03-01T01:33:40;77.37;;;73.27;;
11039;SDS011;5573;49.592;8.662;2023-03-01T01:36:08;73.70;;;69.80;;
11039;SDS011;5573;49.592;8.662;2023-03-01T01:38:37;77.20;;;73.03;;
11039;SDS011;5573;49.592;8.662;2023-03-01T01:41:06;72.47;;;68.67;;
11039;SDS011;5573;49.592;8.662;2023-03-01T01:43:35;77.60;;;73.47;;
11039;SDS011;5573;49.592;8.662;2023-03-01T01:46:04;71.47;;;67.40;;
11039;SDS011;5573;49.592;8.662;2023-03-01T01:48:37;74.07;;;69.87;;
11039;SDS011;5573;49.592;8.662;2023-03-01T01:51:09;76.10;;;71.93;;
11039;SDS011;5573;49.592;8.662;2023-03-01T01:53:40;72.33;;;68.53;;
11039;SDS011;5573;49.592;8.662;2023-03-01T01:56:11;83.87;;;79.43;;
11039;SDS011;5573;49.592;8.662;2023-03-01T01:58:39;78.10;;;73.70;;
11039;SDS011;5573;49.592;8.662;2023-03-01T02:01:09;83.70;;;79.33;;
11039;SDS011;5573;49.592;8.662;2023-03-01T02:03:38;80.33;;;76.03;;
11039;SDS011;5573;49.592;8.662;2023-03-01T02:06:12;76.30;;;72.27;;
11039;SDS011;5573;49.592;8.662;2023-03-01T02:08:46;87.30;;;82.50;;
11039;SDS011;5573;49.592;8.662;2023-03-01T02:11:17;76.37;;;72.33;;
11039;SDS011;5573;49.592;8.662;2023-03-01T02:13:47;84.57;;;80.13;;
11039;SDS011;5573;49.592;8.662;2023-03-01T02:16:15;88.43;;;83.87;;
11039;SDS011;5573;49.592;8.662;2023-03-01T02:18:43;91.77;;;86.90;;
11039;SDS011;5573;49.592;8.662;2023-03-01T02:21:17;86.57;;;82.03;;
11039;SDS011;5573;49.592;8.662;2023-03-01T02:23:56;80.30;;;75.50;;
11039;SDS011;5573;49.592;8.662;2023-03-01T02:26:28;84.87;;;80.40;;
11039;SDS011;5573;49.592;8.662;2023-03-01T02:29:05;83.23;;;78.87;;
11039;SDS011;5573;49.592;8.662;2023-03-01T02:31:33;76.77;;;72.47;;
11039;SDS011;5573;49.592;8.662;2023-03-01T02:34:12;75.97;;;72.03;;
11039;SDS011;5573;49.592;8.662;2023-03-01T02:36:43;85.17;;;80.60;;
11039;SDS011;5573;49.592;8.662;2023-03-01T02:39:15;79.60;;;75.43;;
11039;SDS011;5573;49.592;8.662;2023-03-01T02:41:46;79.30;;;74.87;;
11039;SDS011;5573;49.592;8.662;2023-03-01T02:44:19;79.53;;;75.40;;
11039;SDS011;5573;49.592;8.662;2023-03-01T02:46:47;83.40;;;79.13;;
11039;SDS011;5573;49.592;8.662;2023-03-01T02:49:18;84.17;;;79.70;;
11039;SDS011;5573;49.592;8.662;2023-03-01T02:51:52;85.80;;;81.17;;
11039;SDS011;5573;49.592;8.662;2023-03-01T02:54:36;82.07;;;77.80;;
11039;SDS011;5573;49.592;8.662;2023-03-01T02:57:08;82.73;;;78.43;;
11039;SDS011;5573;49.592;8.662;2023-03-01T02:59:39;78.37;;;74.27;;
11039;SDS011;5573;49.592;8.662;2023-03-01T03:02:18;83.43;;;79.10;;
11039;SDS011;5573;49.592;8.662;2023-03-01T03:05:07;67.27;;;63.80;;
11039;SDS011;5573;49.592;8.662;2023-03-01T03:07:37;76.47;;;72.33;;
11039;SDS011;5573;49.592;8.662;2023-03-01T03:10:08;70.73;;;67.00;;
11039;SDS011;5573;49.592;8.662;2023-03-01T03:12:38;79.03;;;75.00;;
11039;SDS011;5573;49.592;8.662;2023-03-01T03:15:09;79.07;;;74.87;;
11039;SDS011;5573;49.592;8.662;2023-03-01T03:17:39;76.80;;;72.87;;
11039;SDS011;5573;49.592;8.662;2023-03-01T03:20:12;78.20;;;74.13;;
11039;SDS011;5573;49.592;8.662;2023-03-01T03:22:45;75.70;;;71.67;;
11039;SDS011;5573;49.592;8.662;2023-03-01T03:25:13;73.13;;;69.27;;
11039;SDS011;5573;49.592;8.662;2023-03-01T03:27:41;79.23;;;75.03;;
11039;SDS011;5573;49.592;8.662;2023-03-01T03:30:13;71.97;;;68.20;;
11039;SDS011;5573;49.592;8.662;2023-03-01T03:32:43;75.13;;;71.20;;
11039;SDS011;5573;49.592;8.662;2023-03-01T03:35:18;75.70;;;71.70;;
11039;SDS011;5573;49.592;8.662;2023-03-01T03:37:47;76.60;;;72.60;;
11039;SDS011;5573;49.592;8.662;2023-03-01T03:40:33;71.03;;;67.30;;
11039;SDS011;5573;49.592;8.662;2023-03-01T03:43:01;78.37;;;74.27;;
11039;SDS011;5573;49.592;8.662;2023-03-01T03:45:31;63.97;;;60.60;;
11039;SDS011;5573;49.592;8.662;2023-03-01T03:48:00;82.57;;;78.07;;
11039;SDS011;5573;49.592;8.662;2023-03-01T03:50:28;79.03;;;74.83;;
11039;SDS011;5573;49.592;8.662;2023-03-01T03:52:56;75.60;;;71.73;;
11039;SDS011;5573;49.592;8.662;2023-03-01T03:55:27;68.80;;;65.07;;
11039;SDS011;5573;49.592;8.662;2023-03-01T03:57:57;73.90;;;70.10;;
11039;SDS011;5573;49.592;8.662;2023-03-01T04:00:28;71.30;;;67.60;;
11039;SDS011;5573;49.592;8.662;2023-03-01T04:02:57;75.33;;;71.40;;
11039;SDS011;5573;49.592;8.662;2023-03-01T04:05:25;72.13;;;68.03;;
11039;SDS011;5573;49.592;8.662;2023-03-01T04:07:54;77.57;;;73.33;;
11039;SDS011;5573;49.592;8.662;2023-03-01T04:10:34;70.27;;;66.13;;
11039;SDS011;5573;49.592;8.662;2023-03-01T04:13:03;70.13;;;66.47;;
11039;SDS011;5573;49.592;8.662;2023-03-01T04:15:31;69.97;;;66.30;;
11039;SDS011;5573;49.592;8.662;2023-03-01T04:18:01;75.07;;;71.13;;
11039;SDS011;5573;49.592;8.662;2023-03-01T04:20:29;78.63;;;74.53;;
11039;SDS011;5573;49.592;8.662;2023-03-01T04:23:01;72.53;;;68.70;;
11039;SDS011;5573;49.592;8.662;2023-03-01T04:25:37;73.57;;;69.70;;
11039;SDS011;5573;49.592;8.662;2023-03-01T04:28:05;77.90;;;73.77;;
11039;SDS011;5573;49.592;8.662;2023-03-01T04:30:34;77.47;;;73.27;;
11039;SDS011;5573;49.592;8.662;2023-03-01T04:33:04;76.00;;;72.07;;
11039;SDS011;5573;49.592;8.662;2023-03-01T04:35:34;76.53;;;72.53;;
11039;SDS011;5573;49.592;8.662;2023-03-01T04:38:02;74.20;;;70.10;;
11039;SDS011;5573;49.592;8.662;2023-03-01T04:40:30;75.87;;;71.90;;
11039;SDS011;5573;49.592;8.662;2023-03-01T04:42:59;83.13;;;78.80;;
11039;SDS011;5573;49.592;8.662;2023-03-01T04:45:27;77.97;;;73.63;;
11039;SDS011;5573;49.592;8.662;2023-03-01T04:47:55;77.87;;;73.87;;
11039;SDS011;5573;49.592;8.662;2023-03-01T04:50:25;77.27;;;73.23;;
11039;SDS011;5573;49.592;8.662;2023-03-01T04:52:53;72.73;;;68.97;;
11039;SDS011;5573;49.592;8.662;2023-03-01T04:55:25;78.73;;;74.60;;
11039;SDS011;5573;49.592;8.662;2023-03-01T04:57:53;73.23;;;68.40;;
11039;SDS011;5573;49.592;8.662;2023-03-01T05:00:22;77.00;;;72.97;;
11039;SDS011;5573;49.592;8.662;2023-03-01T05:02:51;83.90;;;79.53;;
11039;SDS011;5573;49.592;8.662;2023-03-01T05:05:24;77.37;;;73.13;;
11039;SDS011;5573;49.592;8.662;2023-03-01T05:07:55;78.73;;;74.60;;
11039;SDS011;5573;49.592;8.662;2023-03-01T05:10:24;76.73;;;72.67;;
11039;SDS011;5573;49.592;8.662;2023-03-01T05:12:52;80.53;;;76.37;;
11039;SDS011;5573;49.592;8.662;2023-03-01T05:15:20;73.97;;;70.10;;
11039;SDS011;5573;49.592;8.662;2023-03-01T05:17:52;70.80;;;67.00;;
11039;SDS011;5573;49.592;8.662;2023-03-01T05:20:20;76.20;;;72.10;;
11039;SDS011;5573;49.592;8.662;2023-03-01T05:22:51;72.20;;;68.47;;
11039;SDS011;5573;49.592;8.662;2023-03-01T05:25:21;73.83;;;70.07;;
11039;SDS011;5573;49.592;8.662;2023-03-01T05:27:49;67.93;;;64.37;;
11039;SDS011;5573;49.592;8.662;2023-03-01T05:30:17;74.63;;;70.73;;
11039;SDS011;5573;49.592;8.662;2023-03-01T05:32:46;79.60;;;75.53;;
11039;SDS011;5573;49.592;8.662;2023-03-01T05:35:16;75.00;;;71.10;;
11039;SDS011;5573;49.592;8.662;2023-03-01T05:37:45;74.50;;;70.63;;
11039;SDS011;5573;49.592;8.662;2023-03-01T05:40:17;83.53;;;79.13;;
11039;SDS011;5573;49.592;8.662;2023-03-01T05:42:47;78.20;;;74.03;;
11039;SDS011;5573;49.592;8.662;2023-03-01T05:45:16;73.20;;;69.40;;
11039;SDS011;5573;49.592;8.662;2023-03-01T05:47:45;74.70;;;70.83;;
11039;SDS011;5573;49.592;8.662;2023-03-01T05:50:14;73.67;;;69.87;;
11039;SDS011;5573;49.592;8.662;2023-03-01T05:52:45;81.70;;;77.30;;
11039;SDS011;5573;49.592;8.662;2023-03-01T05:55:14;75.80;;;71.87;;
11039;SDS011;5573;49.592;8.662;2023-03-01T05:57:44;76.50;;;72.57;;
11039;SDS011;5573;49.592;8.662;2023-03-01T06:00:13;80.17;;;75.93;;
11039;SDS011;5573;49.592;8.662;2023-03-01T06:02:42;89.10;;;84.10;;
11039;SDS011;5573;49.592;8.662;2023-03-01T06:05:11;80.20;;;75.97;;
11039;SDS011;5573;49.592;8.662;2023-03-01T06:07:40;85.43;;;80.57;;
11039;SDS011;5573;49.592;8.662;2023-03-01T06:10:08;83.53;;;79.13;;
11039;SDS011;5573;49.592;8.662;2023-03-01T06:12:39;77.40;;;73.40;;
11039;SDS011;5573;49.592;8.662;2023-03-01T06:15:08;82.07;;;77.80;;
11039;SDS011;5573;49.592;8.662;2023-03-01T06:17:38;82.00;;;77.80;;
11039;SDS011;5573;49.592;8.662;2023-03-01T06:20:08;81.77;;;77.00;;
11039;SDS011;5573;49.592;8.662;2023-03-01T06:22:38;80.63;;;76.37;;
11039;SDS011;5573;49.592;8.662;2023-03-01T06:25:06;86.03;;;81.53;;
11039;SDS011;5573;49.592;8.662;2023-03-01T06:27:35;89.50;;;84.47;;
11039;SDS011;5573;49.592;8.662;2023-03-01T06:30:05;83.70;;;79.23;;
11039;SDS011;5573;49.592;8.662;2023-03-01T06:32:36;82.50;;;78.13;;
11039;SDS011;5573;49.592;8.662;2023-03-01T06:35:08;76.83;;;72.80;;
11039;SDS011;5573;49.592;8.662;2023-03-01T06:37:37;82.93;;;78.63;;
11039;SDS011;5573;49.592;8.662;2023-03-01T06:40:06;87.03;;;82.40;;
11039;SDS011;5573;49.592;8.662;2023-03-01T06:42:35;81.20;;;76.93;;
11039;SDS011;5573;49.592;8.662;2023-03-01T06:45:05;76.27;;;72.07;;
11039;SDS011;5573;49.592;8.662;2023-03-01T06:47:34;81.90;;;77.57;;
11039;SDS011;5573;49.592;8.662;2023-03-01T06:50:02;82.33;;;78.07;;
11039;SDS011;5573;49.592;8.662;2023-03-01T06:52:30;87.63;;;83.00;;
11039;SDS011;5573;49.592;8.662;2023-03-01T06:54:58;78.30;;;74.00;;
11039;SDS011;5573;49.592;8.662;2023-03-01T06:57:26;86.20;;;81.47;;
11039;SDS011;5573;49.592;8.662;2023-03-01T06:59:54;87.13;;;82.40;;
11039;SDS011;5573;49.592;8.662;2023-03-01T07:02:23;80.37;;;76.13;;
11039;SDS011;5573;49.592;8.662;2023-03-01T07:04:51;88.80;;;84.03;;
11039;SDS011;5573;49.592;8.662;2023-03-01T07:07:19;83.57;;;79.17;;
11039;SDS011;5573;49.592;8.662;2023-03-01T07:09:48;85.27;;;80.80;;
11039;SDS011;5573;49.592;8.662;2023-03-01T07:12:16;85.73;;;81.27;;
11039;SDS011;5573;49.592;8.662;2023-03-01T07:14:44;84.40;;;79.80;;
11039;SDS011;5573;49.592;8.662;2023-03-01T07:17:11;83.23;;;78.40;;
11039;SDS011;5573;49.592;8.662;2023-03-01T07:19:40;72.53;;;68.73;;
11039;SDS011;5573;49.592;8.662;2023-03-01T07:22:08;78.57;;;74.50;;
11039;SDS011;5573;49.592;8.662;2023-03-01T07:24:36;80.13;;;75.93;;
11039;SDS011;5573;49.592;8.662;2023-03-01T07:27:03;73.37;;;69.43;;
11039;SDS011;5573;49.592;8.662;2023-03-01T07:29:31;78.23;;;74.17;;
11039;SDS011;5573;49.592;8.662;2023-03-01T07:31:59;77.13;;;73.10;;
11039;SDS011;5573;49.592;8.662;2023-03-01T07:34:27;73.40;;;69.57;;
11039;SDS011;5573;49.592;8.662;2023-03-01T07:36:56;78.27;;;74.10;;
11039;SDS011;5573;49.592;8.662;2023-03-01T07:39:24;68.43;;;64.90;;
11039;SDS011;5573;49.592;8.662;2023-03-01T07:41:51;65.60;;;62.13;;
11039;SDS011;5573;49.592;8.662;2023-03-01T07:44:21;72.43;;;68.67;;
11039;SDS011;5573;49.592;8.662;2023-03-01T07:46:48;74.17;;;70.10;;
11039;SDS011;5573;49.592;8.662;2023-03-01T07:49:18;69.17;;;65.47;;
11039;SDS011;5573;49.592;8.662;2023-03-01T07:51:46;69.17;;;65.57;;
11039;SDS011;5573;49.592;8.662;2023-03-01T07:54:15;65.73;;;62.23;;
11039;SDS011;5573;49.592;8.662;2023-03-01T07:56:44;67.13;;;63.63;;
11039;SDS011;5573;49.592;8.662;2023-03-01T07:59:12;74.13;;;70.23;;
11039;SDS011;5573;49.592;8.662;2023-03-01T08:01:39;72.67;;;68.87;;
11039;SDS011;5573;49.592;8.662;2023-03-01T08:04:07;66.50;;;62.83;;
11039;SDS011;5573;49.592;8.662;2023-03-01T08:06:35;64.93;;;61.53;;
11039;SDS011;5573;49.592;8.662;2023-03-01T08:09:03;68.43;;;64.80;;
11039;SDS011;5573;49.592;8.662;2023-03-01T08:11:32;76.40;;;72.30;;
11039;SDS011;5573;49.592;8.662;2023-03-01T08:14:00;66.30;;;62.73;;
11039;SDS011;5573;49.592;8.662;2023-03-01T08:16:28;75.80;;;71.67;;
11039;SDS011;5573;49.592;8.662;2023-03-01T08:18:56;73.37;;;69.47;;
11039;SDS011;5573;49.592;8.662;2023-03-01T08:21:27;78.60;;;74.43;;
11039;SDS011;5573;49.592;8.662;2023-03-01T08:23:55;75.13;;;71.07;;
11039;SDS011;5573;49.592;8.662;2023-03-01T08:26:22;78.93;;;74.70;;
11039;SDS011;5573;49.592;8.662;2023-03-01T08:28:51;73.57;;;69.40;;
11039;SDS011;5573;49.592;8.662;2023-03-01T08:31:20;70.67;;;66.93;;
11039;SDS011;5573;49.592;8.662;2023-03-01T08:33:50;77.70;;;73.57;;
11039;SDS011;5573;49.592;8.662;2023-03-01T08:36:22;77.57;;;73.33;;
11039;SDS011;5573;49.592;8.662;2023-03-01T08:38:51;78.67;;;74.53;;
11039;SDS011;5573;49.592;8.662;2023-03-01T08:41:19;79.47;;;75.03;;
11039;SDS011;5573;49.592;8.662;2023-03-01T08:43:46;70.30;;;66.63;;
11039;SDS011;5573;49.592;8.662;2023-03-01T08:46:15;71.63;;;67.07;;
11039;SDS011;5573;49.592;8.662;2023-03-01T08:48:44;76.40;;;72.37;;
11039;SDS011;5573;49.592;8.662;2023-03-01T08:51:12;80.03;;;75.77;;
11039;SDS011;5573;49.592;8.662;2023-03-01T08:53:43;75.70;;;71.60;;
11039;SDS011;5573;49.592;8.662;2023-03-01T08:56:12;71.37;;;67.47;;
11039;SDS011;5573;49.592;8.662;2023-03-01T08:58:43;69.33;;;65.67;;
11039;SDS011;5573;49.592;8.662;2023-03-01T09:01:12;75.57;;;71.53;;
11039;SDS011;5573;49.592;8.662;2023-03-01T09:03:43;73.03;;;69.07;;
11039;SDS011;5573;49.592;8.662;2023-03-01T09:06:11;67.97;;;64.17;;
11039;SDS011;5573;49.592;8.662;2023-03-01T09:08:40;74.27;;;70.07;;
11039;SDS011;5573;49.592;8.662;2023-03-01T09:11:10;64.93;;;61.50;;
11039;SDS011;5573;49.592;8.662;2023-03-01T09:13:42;71.00;;;67.20;;
11039;SDS011;5573;49.592;8.662;2023-03-01T09:16:11;70.27;;;66.53;;
11039;SDS011;5573;49.592;8.662;2023-03-01T09:18:40;74.33;;;69.67;;
11039;SDS011;5573;49.592;8.662;2023-03-01T09:21:10;69.53;;;65.80;;
11039;SDS011;5573;49.592;8.662;2023-03-01T09:23:40;71.20;;;67.20;;
11039;SDS011;5573;49.592;8.662;2023-03-01T09:26:10;66.27;;;62.63;;
11039;SDS011;5573;49.592;8.662;2023-03-01T09:28:40;67.03;;;63.37;;
11039;SDS011;5573;49.592;8.662;2023-03-01T09:31:08;64.60;;;61.10;;
11039;SDS011;5573;49.592;8.662;2023-03-01T09:33:36;71.03;;;67.00;;
11039;SDS011;5573;49.592;8.662;2023-03-01T09:36:04;63.00;;;59.67;;
11039;SDS011;5573;49.592;8.662;2023-03-01T09:38:35;62.77;;;59.30;;
11039;SDS011;5573;49.592;8.662;2023-03-01T09:41:08;63.20;;;59.67;;
11039;SDS011;5573;49.592;8.662;2023-03-01T09:43:40;59.83;;;56.67;;
11039;SDS011;5573;49.592;8.662;2023-03-01T09:46:13;59.83;;;56.57;;
11039;SDS011;5573;49.592;8.662;2023-03-01T09:48:43;65.50;;;61.83;;
11039;SDS011;5573;49.592;8.662;2023-03-01T09:51:17;62.47;;;59.03;;
11039;SDS011;5573;49.592;8.662;2023-03-01T09:53:48;62.03;;;58.57;;
11039;SDS011;5573;49.592;8.662;2023-03-01T09:56:16;56.10;;;53.00;;
11039;SDS011;5573;49.592;8.662;2023-03-01T09:58:50;62.63;;;58.90;;
11039;SDS011;5573;49.592;8.662;2023-03-01T10:01:26;60.37;;;57.00;;
11039;SDS011;5573;49.592;8.662;2023-03-01T10:04:01;59.13;;;55.83;;
11039;SDS011;5573;49.592;8.662;2023-03-01T10:06:37;60.00;;;56.87;;
11039;SDS011;5573;49.592;8.662;2023-03-01T10:09:11;60.90;;;57.57;;
11039;SDS011;5573;49.592;8.662;2023-03-01T10:11:41;61.30;;;57.63;;
11039;SDS011;5573;49.592;8.662;2023-03-01T10:14:15;56.77;;;53.63;;
11039;SDS011;5573;49.592;8.662;2023-03-01T10:16:57;59.77;;;56.60;;
11039;SDS011;5573;49.592;8.662;2023-03-01T10:19:30;58.77;;;55.53;;
11039;SDS011;5573;49.592;8.662;2023-03-01T10:22:00;54.40;;;51.40;;
11039;SDS011;5573;49.592;8.662;2023-03-01T10:24:34;53.90;;;50.93;;
11039;SDS011;5573;49.592;8.662;2023-03-01T10:27:04;54.90;;;51.83;;
11039;SDS011;5573;49.592;8.662;2023-03-01T10:29:37;53.80;;;50.67;;
11039;SDS011;5573;49.592;8.662;2023-03-01T10:32:11;53.60;;;50.60;;
11039;SDS011;5573;49.592;8.662;2023-03-01T10:34:39;47.57;;;44.83;;
11039;SDS011;5573;49.592;8.662;2023-03-01T10:37:11;56.10;;;52.90;;
11039;SDS011;5573;49.592;8.662;2023-03-01T10:42:27;46.40;;;43.87;;
11039;SDS011;5573;49.592;8.662;2023-03-01T10:44:56;48.40;;;45.67;;
11039;SDS011;5573;49.592;8.662;2023-03-01T10:47:26;46.47;;;43.97;;
11039;SDS011;5573;49.592;8.662;2023-03-01T10:49:59;45.73;;;43.23;;
11039;SDS011;5573;49.592;8.662;2023-03-01T10:52:33;45.47;;;42.97;;
11039;SDS011;5573;49.592;8.662;2023-03-01T10:55:15;43.53;;;40.57;;
11039;SDS011;5573;49.592;8.662;2023-03-01T10:57:55;37.00;;;34.83;;
11039;SDS011;5573;49.592;8.662;2023-03-01T11:00:34;44.53;;;42.10;;
11039;SDS011;5573;49.592;8.662;2023-03-01T11:03:14;42.97;;;40.60;;
11039;SDS011;5573;49.592;8.662;2023-03-01T11:05:52;38.80;;;36.60;;
11039;SDS011;5573;49.592;8.662;2023-03-01T11:08:33;45.47;;;42.93;;
11039;SDS011;5573;49.592;8.662;2023-03-01T11:13:53;43.40;;;40.77;;
11039;SDS011;5573;49.592;8.662;2023-03-01T11:16:24;43.00;;;40.67;;
11039;SDS011;5573;49.592;8.662;2023-03-01T11:18:58;41.43;;;38.90;;
11039;SDS011;5573;49.592;8.662;2023-03-01T11:21:28;44.93;;;42.40;;
11039;SDS011;5573;49.592;8.662;2023-03-01T11:24:00;40.07;;;37.70;;
11039;SDS011;5573;49.592;8.662;2023-03-01T11:26:30;40.37;;;37.97;;
11039;SDS011;5573;49.592;8.662;2023-03-01T11:29:03;37.70;;;35.50;;
11039;SDS011;5573;49.592;8.662;2023-03-01T11:31:37;38.90;;;36.67;;
11039;SDS011;5573;49.592;8.662;2023-03-01T11:34:23;43.83;;;41.23;;
11039;SDS011;5573;49.592;8.662;2023-03-01T11:37:04;40.13;;;37.87;;
11039;SDS011;5573;49.592;8.662;2023-03-01T11:39:42;38.40;;;36.30;;
11039;SDS011;5573;49.592;8.662;2023-03-01T11:42:17;41.10;;;38.80;;
11039;SDS011;5573;49.592;8.662;2023-03-01T11:44:48;42.20;;;39.70;;
11039;SDS011;5573;49.592;8.662;2023-03-01T11:47:22;44.57;;;42.10;;
11039;SDS011;5573;49.592;8.662;2023-03-01T11:50:06;39.57;;;37.33;;
11039;SDS011;5573;49.592;8.662;2023-03-01T11:52:51;38.67;;;36.37;;
11039;SDS011;5573;49.592;8.662;2023-03-01T11:55:30;36.90;;;34.73;;
11039;SDS011;5573;49.592;8.662;2023-03-01T11:58:17;36.87;;;34.67;;
11039;SDS011;5573;49.592;8.662;2023-03-01T12:00:58;36.70;;;34.47;;
11039;SDS011;5573;49.592;8.662;2023-03-01T12:03:33;39.67;;;37.37;;
11039;SDS011;5573;49.592;8.662;2023-03-01T12:06:21;39.97;;;37.70;;
11039;SDS011;5573;49.592;8.662;2023-03-01T12:09:07;38.63;;;36.33;;
11039;SDS011;5573;49.592;8.662;2023-03-01T12:11:58;36.47;;;34.17;;
11039;SDS011;5573;49.592;8.662;2023-03-01T12:14:47;36.83;;;34.77;;
11039;SDS011;5573;49.592;8.662;2023-03-01T12:17:29;39.47;;;37.17;;
11039;SDS011;5573;49.592;8.662;2023-03-01T12:20:11;38.53;;;36.23;;
11039;SDS011;5573;49.592;8.662;2023-03-01T12:22:49;40.70;;;38.40;;
11039;SDS011;5573;49.592;8.662;2023-03-01T12:25:45;40.73;;;38.43;;
11039;SDS011;5573;49.592;8.662;2023-03-01T12:28:39;39.43;;;36.60;;
11039;SDS011;5573;49.592;8.662;2023-03-01T12:34:39;38.57;;;36.37;;
11039;SDS011;5573;49.592;8.662;2023-03-01T12:37:25;37.30;;;34.97;;
11039;SDS011;5573;49.592;8.662;2023-03-01T12:40:13;39.10;;;36.93;;
11039;SDS011;5573;49.592;8.662;2023-03-01T12:42:53;40.87;;;38.37;;
11039;SDS011;5573;49.592;8.662;2023-03-01T12:45:35;35.80;;;33.93;;
11039;SDS011;5573;49.592;8.662;2023-03-01T12:48:17;41.70;;;39.43;;
11039;SDS011;5573;49.592;8.662;2023-03-01T12:51:06;39.20;;;37.07;;
11039;SDS011;5573;49.592;8.662;2023-03-01T12:53:39;43.70;;;41.23;;
11039;SDS011;5573;49.592;8.662;2023-03-01T12:56:10;42.87;;;40.47;;
11039;SDS011;5573;49.592;8.662;2023-03-01T12:58:40;40.70;;;38.27;;
11039;SDS011;5573;49.592;8.662;2023-03-01T13:01:19;42.17;;;39.50;;
11039;SDS011;5573;49.592;8.662;2023-03-01T13:06:53;42.63;;;40.33;;
11039;SDS011;5573;49.592;8.662;2023-03-01T13:09:28;46.63;;;43.97;;
11039;SDS011;5573;49.592;8.662;2023-03-01T13:12:02;43.50;;;40.97;;
11039;SDS011;5573;49.592;8.662;2023-03-01T13:14:45;41.73;;;39.40;;
11039;SDS011;5573;49.592;8.662;2023-03-01T13:20:15;41.50;;;39.27;;
11039;SDS011;5573;49.592;8.662;2023-03-01T13:22:46;47.53;;;44.77;;
11039;SDS011;5573;49.592;8.662;2023-03-01T13:25:20;49.27;;;46.43;;
11039;SDS011;5573;49.592;8.662;2023-03-01T13:31:10;40.17;;;37.90;;
11039;SDS011;5573;49.592;8.662;2023-03-01T13:33:58;39.27;;;37.07;;
11039;SDS011;5573;49.592;8.662;2023-03-01T13:36:47;37.97;;;35.70;;
11039;SDS011;5573;49.592;8.662;2023-03-01T13:39:29;36.80;;;34.67;;
11039;SDS011;5573;49.592;8.662;2023-03-01T13:42:01;42.20;;;39.77;;
11039;SDS011;5573;49.592;8.662;2023-03-01T13:44:30;40.07;;;37.77;;
11039;SDS011;5573;49.592;8.662;2023-03-01T13:47:03;38.30;;;36.17;;
11039;SDS011;5573;49.592;8.662;2023-03-01T13:49:42;40.30;;;37.70;;
11039;SDS011;5573;49.592;8.662;2023-03-01T13:52:32;39.13;;;36.77;;
11039;SDS011;5573;49.592;8.662;2023-03-01T13:55:06;40.30;;;38.07;;
11039;SDS011;5573;49.592;8.662;2023-03-01T13:57:44;37.03;;;34.97;;
11039;SDS011;5573;49.592;8.662;2023-03-01T14:00:26;39.17;;;36.93;;
11039;SDS011;5573;49.592;8.662;2023-03-01T14:03:00;41.60;;;39.20;;
11039;SDS011;5573;49.592;8.662;2023-03-01T14:05:32;40.13;;;37.77;;
11039;SDS011;5573;49.592;8.662;2023-03-01T14:08:01;37.93;;;35.80;;
11039;SDS011;5573;49.592;8.662;2023-03-01T14:10:32;36.53;;;34.50;;
11039;SDS011;5573;49.592;8.662;2023-03-01T14:13:13;41.60;;;39.00;;
11039;SDS011;5573;49.592;8.662;2023-03-01T14:15:56;31.77;;;29.87;;
11039;SDS011;5573;49.592;8.662;2023-03-01T14:18:42;33.07;;;31.17;;
11039;SDS011;5573;49.592;8.662;2023-03-01T14:21:15;35.97;;;33.67;;
11039;SDS011;5573;49.592;8.662;2023-03-01T14:23:44;37.08;;;34.97;;
11039;SDS011;5573;49.592;8.662;2023-03-01T14:26:13;36.43;;;34.20;;
11039;SDS011;5573;49.592;8.662;2023-03-01T14:28:48;33.50;;;31.57;;
11039;SDS011;5573;49.592;8.662;2023-03-01T14:31:35;32.80;;;30.97;;
11039;SDS011;5573;49.592;8.662;2023-03-01T14:34:19;30.43;;;28.80;;
11039;SDS011;5573;49.592;8.662;2023-03-01T14:36:48;34.23;;;32.33;;
11039;SDS011;5573;49.592;8.662;2023-03-01T14:39:18;34.47;;;32.53;;
11039;SDS011;5573;49.592;8.662;2023-03-01T14:41:50;37.03;;;34.93;;
11039;SDS011;5573;49.592;8.662;2023-03-01T14:44:19;27.17;;;25.47;;
11039;SDS011;5573;49.592;8.662;2023-03-01T14:46:54;36.43;;;34.37;;
11039;SDS011;5573;49.592;8.662;2023-03-01T14:49:24;32.43;;;30.63;;
11039;SDS011;5573;49.592;8.662;2023-03-01T14:51:55;32.80;;;30.97;;
11039;SDS011;5573;49.592;8.662;2023-03-01T14:54:31;32.83;;;31.07;;
11039;SDS011;5573;49.592;8.662;2023-03-01T14:57:04;33.77;;;31.90;;
11039;SDS011;5573;49.592;8.662;2023-03-01T14:59:32;30.43;;;28.70;;
11039;SDS011;5573;49.592;8.662;2023-03-01T15:02:01;28.00;;;26.50;;
11039;SDS011;5573;49.592;8.662;2023-03-01T15:04:29;34.17;;;32.17;;
11039;SDS011;5573;49.592;8.662;2023-03-01T15:07:00;29.60;;;28.00;;
11039;SDS011;5573;49.592;8.662;2023-03-01T15:09:32;31.87;;;30.00;;
11039;SDS011;5573;49.592;8.662;2023-03-01T15:15:00;28.83;;;27.20;;
11039;SDS011;5573;49.592;8.662;2023-03-01T15:17:30;27.67;;;26.10;;
11039;SDS011;5573;49.592;8.662;2023-03-01T15:20:00;29.53;;;27.93;;
11039;SDS011;5573;49.592;8.662;2023-03-01T15:22:30;26.83;;;25.33;;